Estación Meteorológica Peña el Pijo (Robertgarden) [ 02/03/23 03:18:25 CET ]

Fecha Hora Presion(HPa) Temp (°C) Humedad % Rocio (°C) Viento ( m/s) Direccion Lluvia 1Hora(mm) Lluvia 24H(mm) LLuvia Total(mm)
2010-Nov-11 01:01:11 1009.600 0.9 89 -0.8         2.07
2010-Nov-11 02:05:17 1010.200 0.4 90 -1.0         2.07
2010-Nov-11 03:01:12 1010.600 -0.2 90 -1.6         2.07
2010-Nov-11 04:01:13 1010.700 -0.5 90 -1.9         2.07
2010-Nov-11 05:01:16 1011.100 -0.7 91 -2.0         2.07
2010-Nov-11 06:01:12 1011.500 -0.7 91 -2.0         2.07
2010-Nov-11 07:01:13 1011.900 -0.9 91 -2.2         2.07
2010-Nov-11 08:01:13 1012.500 -1.2 91 -2.5         2.07
2010-Nov-11 09:01:16 1013.200 0.1 92 -1.0         2.07
2010-Nov-11 10:01:12 1013.200 6.6 88 4.8         2.07
2010-Nov-11 11:01:16 1013.800 11.1 57 2.8         2.07
2010-Nov-11 12:01:12 1014.200 13.4 44 1.3         2.07
2010-Nov-11 13:01:12 1014.300 14.1 40 0.7         2.07
2010-Nov-11 14:01:19 1013.900 12.1 44 0.1         2.07
2010-Nov-11 15:01:14 1013.800 15.1 38 0.8         2.07
2010-Nov-11 16:01:11 1013.400 14.9 36 -0.1         2.07
2010-Nov-11 17:01:16 1013.900 11.3 43 -0.9         2.07
2010-Nov-11 18:01:18 1014.300 9.4 49 -0.8         2.07
2010-Nov-11 19:01:15 1014.800 8.1 55 -0.5         2.07
2010-Nov-11 20:01:12 1014.900 7.4 58 -0.3         2.07
2010-Nov-11 21:01:14 1015.500 6.9 62 0.1         2.07
2010-Nov-11 22:01:14 1015.900 7.1 64 0.7         2.07
2010-Nov-11 23:01:12 1016.000 6.7 65 0.6         2.07

Temperatura Máxima:15°    Temperatura Mínima:-1°
Presión Máxima:1016.000 Hpa    Presión Mínima:1009.600 Hpa


Volver